sensor_id;sensor_type;location;lat;lon;timestamp;temperature;humidity
59505;DHT22;45321;53.200;5.814;2023-05-06T00:01:09;13.50;84.50
59505;DHT22;45321;53.200;5.814;2023-05-06T00:03:35;13.50;84.10
59505;DHT22;45321;53.200;5.814;2023-05-06T00:06:01;13.50;84.50
59505;DHT22;45321;53.200;5.814;2023-05-06T00:08:30;13.50;83.80
59505;DHT22;45321;53.200;5.814;2023-05-06T00:10:56;13.50;84.10
59505;DHT22;45321;53.200;5.814;2023-05-06T00:13:22;13.50;84.70
59505;DHT22;45321;53.200;5.814;2023-05-06T00:15:47;13.50;84.20
59505;DHT22;45321;53.200;5.814;2023-05-06T00:18:13;13.50;84.60
59505;DHT22;45321;53.200;5.814;2023-05-06T00:20:39;13.50;84.20
59505;DHT22;45321;53.200;5.814;2023-05-06T00:23:06;13.50;83.80
59505;DHT22;45321;53.200;5.814;2023-05-06T00:25:32;13.50;83.50
59505;DHT22;45321;53.200;5.814;2023-05-06T00:27:57;13.50;84.40
59505;DHT22;45321;53.200;5.814;2023-05-06T00:30:24;13.50;84.10
59505;DHT22;45321;53.200;5.814;2023-05-06T00:32:50;13.40;83.40
59505;DHT22;45321;53.200;5.814;2023-05-06T00:35:16;13.40;83.50
59505;DHT22;45321;53.200;5.814;2023-05-06T00:37:44;13.40;84.60
59505;DHT22;45321;53.200;5.814;2023-05-06T00:40:11;13.40;83.90
59505;DHT22;45321;53.200;5.814;2023-05-06T00:42:37;13.40;84.30
59505;DHT22;45321;53.200;5.814;2023-05-06T00:45:02;13.40;84.00
59505;DHT22;45321;53.200;5.814;2023-05-06T00:47:28;13.40;84.70
59505;DHT22;45321;53.200;5.814;2023-05-06T00:49:55;13.30;84.60
59505;DHT22;45321;53.200;5.814;2023-05-06T00:52:20;13.30;83.90
59505;DHT22;45321;53.200;5.814;2023-05-06T00:54:46;13.30;84.70
59505;DHT22;45321;53.200;5.814;2023-05-06T00:57:12;13.30;84.10
59505;DHT22;45321;53.200;5.814;2023-05-06T00:59:38;13.30;83.70
59505;DHT22;45321;53.200;5.814;2023-05-06T01:02:04;13.30;84.20
59505;DHT22;45321;53.200;5.814;2023-05-06T01:04:30;13.30;83.80
59505;DHT22;45321;53.200;5.814;2023-05-06T01:09:55;13.30;84.40
59505;DHT22;45321;53.200;5.814;2023-05-06T01:12:42;13.30;83.70
59505;DHT22;45321;53.200;5.814;2023-05-06T01:15:14;13.30;83.80
59505;DHT22;45321;53.200;5.814;2023-05-06T01:17:43;13.30;84.50
59505;DHT22;45321;53.200;5.814;2023-05-06T01:20:11;13.30;84.20
59505;DHT22;45321;53.200;5.814;2023-05-06T01:22:37;13.30;84.70
59505;DHT22;45321;53.200;5.814;2023-05-06T01:25:04;13.30;84.70
59505;DHT22;45321;53.200;5.814;2023-05-06T01:27:30;13.30;85.20
59505;DHT22;45321;53.200;5.814;2023-05-06T01:29:57;13.30;84.90
59505;DHT22;45321;53.200;5.814;2023-05-06T01:41:03;13.20;84.80
59505;DHT22;45321;53.200;5.814;2023-05-06T01:43:34;13.20;84.70
59505;DHT22;45321;53.200;5.814;2023-05-06T01:46:02;13.20;85.30
59505;DHT22;45321;53.200;5.814;2023-05-06T01:48:31;13.10;84.80
59505;DHT22;45321;53.200;5.814;2023-05-06T01:50:58;13.00;84.90
59505;DHT22;45321;53.200;5.814;2023-05-06T01:53:24;13.10;84.70
59505;DHT22;45321;53.200;5.814;2023-05-06T01:55:49;13.10;84.60
59505;DHT22;45321;53.200;5.814;2023-05-06T01:58:15;13.10;84.90
59505;DHT22;45321;53.200;5.814;2023-05-06T02:00:41;13.10;85.20
59505;DHT22;45321;53.200;5.814;2023-05-06T02:03:07;13.00;85.40
59505;DHT22;45321;53.200;5.814;2023-05-06T02:05:33;13.00;85.20
59505;DHT22;45321;53.200;5.814;2023-05-06T02:07:59;13.00;85.30
59505;DHT22;45321;53.200;5.814;2023-05-06T02:10:25;12.90;85.30
59505;DHT22;45321;53.200;5.814;2023-05-06T02:12:50;13.00;85.50
59505;DHT22;45321;53.200;5.814;2023-05-06T02:15:16;12.90;85.40
59505;DHT22;45321;53.200;5.814;2023-05-06T02:17:42;12.90;85.40
59505;DHT22;45321;53.200;5.814;2023-05-06T02:20:08;12.90;85.30
59505;DHT22;45321;53.200;5.814;2023-05-06T02:22:34;12.90;85.10
59505;DHT22;45321;53.200;5.814;2023-05-06T02:25:00;12.90;85.30
59505;DHT22;45321;53.200;5.814;2023-05-06T02:27:26;12.80;85.20
59505;DHT22;45321;53.200;5.814;2023-05-06T02:29:52;12.90;84.70
59505;DHT22;45321;53.200;5.814;2023-05-06T02:32:18;12.90;84.20
59505;DHT22;45321;53.200;5.814;2023-05-06T02:34:43;12.80;84.80
59505;DHT22;45321;53.200;5.814;2023-05-06T02:37:09;12.80;85.20
59505;DHT22;45321;53.200;5.814;2023-05-06T02:39:37;12.80;85.00
59505;DHT22;45321;53.200;5.814;2023-05-06T02:42:03;12.80;85.40
59505;DHT22;45321;53.200;5.814;2023-05-06T02:44:29;12.90;84.50
59505;DHT22;45321;53.200;5.814;2023-05-06T02:46:55;12.80;84.60
59505;DHT22;45321;53.200;5.814;2023-05-06T02:49:21;12.80;84.70
59505;DHT22;45321;53.200;5.814;2023-05-06T02:51:46;12.80;85.50
59505;DHT22;45321;53.200;5.814;2023-05-06T02:54:12;12.80;85.40
59505;DHT22;45321;53.200;5.814;2023-05-06T02:56:38;12.80;84.90
59505;DHT22;45321;53.200;5.814;2023-05-06T02:59:04;12.80;85.10
59505;DHT22;45321;53.200;5.814;2023-05-06T03:01:30;12.80;85.50
59505;DHT22;45321;53.200;5.814;2023-05-06T03:03:55;12.80;86.00
59505;DHT22;45321;53.200;5.814;2023-05-06T03:06:21;12.80;85.20
59505;DHT22;45321;53.200;5.814;2023-05-06T03:08:47;12.80;84.80
59505;DHT22;45321;53.200;5.814;2023-05-06T03:11:12;12.80;84.60
59505;DHT22;45321;53.200;5.814;2023-05-06T03:13:38;12.80;84.80
59505;DHT22;45321;53.200;5.814;2023-05-06T03:16:04;12.80;85.50
59505;DHT22;45321;53.200;5.814;2023-05-06T03:18:30;12.80;85.80
59505;DHT22;45321;53.200;5.814;2023-05-06T03:20:55;12.80;85.80
59505;DHT22;45321;53.200;5.814;2023-05-06T03:23:21;12.80;85.40
59505;DHT22;45321;53.200;5.814;2023-05-06T03:25:47;12.80;85.40
59505;DHT22;45321;53.200;5.814;2023-05-06T03:28:12;12.80;85.70
59505;DHT22;45321;53.200;5.814;2023-05-06T03:30:38;12.80;85.80
59505;DHT22;45321;53.200;5.814;2023-05-06T03:33:04;12.80;85.50
59505;DHT22;45321;53.200;5.814;2023-05-06T03:35:30;12.80;85.40
59505;DHT22;45321;53.200;5.814;2023-05-06T03:37:55;12.80;85.30
59505;DHT22;45321;53.200;5.814;2023-05-06T03:40:21;12.80;85.70
59505;DHT22;45321;53.200;5.814;2023-05-06T03:42:47;12.80;85.10
59505;DHT22;45321;53.200;5.814;2023-05-06T03:45:13;12.80;84.90
59505;DHT22;45321;53.200;5.814;2023-05-06T03:47:39;12.80;85.00
59505;DHT22;45321;53.200;5.814;2023-05-06T03:50:05;12.80;85.10
59505;DHT22;45321;53.200;5.814;2023-05-06T03:52:31;12.80;85.10
59505;DHT22;45321;53.200;5.814;2023-05-06T03:54:56;12.80;85.80
59505;DHT22;45321;53.200;5.814;2023-05-06T03:57:22;12.80;86.00
59505;DHT22;45321;53.200;5.814;2023-05-06T03:59:48;12.80;85.80
59505;DHT22;45321;53.200;5.814;2023-05-06T04:02:14;12.90;86.80
59505;DHT22;45321;53.200;5.814;2023-05-06T04:04:40;12.90;86.90
59505;DHT22;45321;53.200;5.814;2023-05-06T04:07:06;12.90;87.10
59505;DHT22;45321;53.200;5.814;2023-05-06T04:09:32;12.90;87.50
59505;DHT22;45321;53.200;5.814;2023-05-06T04:11:58;12.80;88.00
59505;DHT22;45321;53.200;5.814;2023-05-06T04:14:23;12.80;87.50
59505;DHT22;45321;53.200;5.814;2023-05-06T04:16:49;12.80;86.80
59505;DHT22;45321;53.200;5.814;2023-05-06T04:19:15;12.80;87.10
59505;DHT22;45321;53.200;5.814;2023-05-06T04:21:42;12.80;86.90
59505;DHT22;45321;53.200;5.814;2023-05-06T04:24:08;12.80;86.60
59505;DHT22;45321;53.200;5.814;2023-05-06T04:26:33;12.80;86.40
59505;DHT22;45321;53.200;5.814;2023-05-06T04:28:59;12.80;86.30
59505;DHT22;45321;53.200;5.814;2023-05-06T04:31:25;12.80;86.80
59505;DHT22;45321;53.200;5.814;2023-05-06T04:33:52;12.80;87.30
59505;DHT22;45321;53.200;5.814;2023-05-06T04:36:18;12.70;87.50
59505;DHT22;45321;53.200;5.814;2023-05-06T04:38:44;12.70;87.80
59505;DHT22;45321;53.200;5.814;2023-05-06T04:41:11;12.80;88.20
59505;DHT22;45321;53.200;5.814;2023-05-06T04:43:38;12.80;88.30
59505;DHT22;45321;53.200;5.814;2023-05-06T04:46:04;12.80;88.40
59505;DHT22;45321;53.200;5.814;2023-05-06T04:48:31;12.80;87.90
59505;DHT22;45321;53.200;5.814;2023-05-06T04:50:56;12.80;87.50
59505;DHT22;45321;53.200;5.814;2023-05-06T04:53:22;12.80;87.60
59505;DHT22;45321;53.200;5.814;2023-05-06T04:55:48;12.80;87.30
59505;DHT22;45321;53.200;5.814;2023-05-06T04:58:13;12.80;87.50
59505;DHT22;45321;53.200;5.814;2023-05-06T05:00:39;12.80;87.60
59505;DHT22;45321;53.200;5.814;2023-05-06T05:03:05;12.90;87.40
59505;DHT22;45321;53.200;5.814;2023-05-06T05:05:31;12.80;88.00
59505;DHT22;45321;53.200;5.814;2023-05-06T05:07:58;12.80;87.40
59505;DHT22;45321;53.200;5.814;2023-05-06T05:10:23;12.90;88.00
59505;DHT22;45321;53.200;5.814;2023-05-06T05:12:49;12.90;88.40
59505;DHT22;45321;53.200;5.814;2023-05-06T05:15:15;12.80;88.10
59505;DHT22;45321;53.200;5.814;2023-05-06T05:17:41;12.90;87.40
59505;DHT22;45321;53.200;5.814;2023-05-06T05:20:07;12.90;87.00
59505;DHT22;45321;53.200;5.814;2023-05-06T05:22:33;12.90;87.10
59505;DHT22;45321;53.200;5.814;2023-05-06T05:24:58;13.00;87.50
59505;DHT22;45321;53.200;5.814;2023-05-06T05:27:24;13.00;87.90
59505;DHT22;45321;53.200;5.814;2023-05-06T05:29:50;13.00;87.80
59505;DHT22;45321;53.200;5.814;2023-05-06T05:32:16;13.00;87.80
59505;DHT22;45321;53.200;5.814;2023-05-06T05:34:41;13.10;87.60
59505;DHT22;45321;53.200;5.814;2023-05-06T05:37:07;13.10;87.00
59505;DHT22;45321;53.200;5.814;2023-05-06T05:39:33;13.10;86.90
59505;DHT22;45321;53.200;5.814;2023-05-06T05:41:59;13.20;87.20
59505;DHT22;45321;53.200;5.814;2023-05-06T05:44:24;13.20;87.10
59505;DHT22;45321;53.200;5.814;2023-05-06T05:46:50;13.20;86.80
59505;DHT22;45321;53.200;5.814;2023-05-06T05:49:16;13.20;87.00
59505;DHT22;45321;53.200;5.814;2023-05-06T05:51:41;13.30;87.70
59505;DHT22;45321;53.200;5.814;2023-05-06T05:54:07;13.20;88.30
59505;DHT22;45321;53.200;5.814;2023-05-06T05:56:33;13.20;88.00
59505;DHT22;45321;53.200;5.814;2023-05-06T05:59:00;13.20;87.60
59505;DHT22;45321;53.200;5.814;2023-05-06T06:01:25;13.30;87.90
59505;DHT22;45321;53.200;5.814;2023-05-06T06:03:51;13.30;88.40
59505;DHT22;45321;53.200;5.814;2023-05-06T06:06:18;13.30;88.40
59505;DHT22;45321;53.200;5.814;2023-05-06T06:08:44;13.30;88.70
59505;DHT22;45321;53.200;5.814;2023-05-06T06:11:10;13.30;88.90
59505;DHT22;45321;53.200;5.814;2023-05-06T06:13:36;13.30;88.90
59505;DHT22;45321;53.200;5.814;2023-05-06T06:16:02;13.30;88.60
59505;DHT22;45321;53.200;5.814;2023-05-06T06:18:28;13.40;88.90
59505;DHT22;45321;53.200;5.814;2023-05-06T06:20:54;13.50;88.60
59505;DHT22;45321;53.200;5.814;2023-05-06T06:23:20;13.50;88.70
59505;DHT22;45321;53.200;5.814;2023-05-06T06:25:46;13.50;88.50
59505;DHT22;45321;53.200;5.814;2023-05-06T06:28:11;13.50;88.20
59505;DHT22;45321;53.200;5.814;2023-05-06T06:30:37;13.60;88.30
59505;DHT22;45321;53.200;5.814;2023-05-06T06:33:03;13.60;88.10
59505;DHT22;45321;53.200;5.814;2023-05-06T06:35:29;13.60;88.00
59505;DHT22;45321;53.200;5.814;2023-05-06T06:37:54;13.70;88.50
59505;DHT22;45321;53.200;5.814;2023-05-06T06:40:21;13.80;88.30
59505;DHT22;45321;53.200;5.814;2023-05-06T06:42:46;13.80;88.50
59505;DHT22;45321;53.200;5.814;2023-05-06T06:45:13;13.80;88.40
59505;DHT22;45321;53.200;5.814;2023-05-06T06:47:39;13.80;87.80
59505;DHT22;45321;53.200;5.814;2023-05-06T06:50:07;13.90;87.80
59505;DHT22;45321;53.200;5.814;2023-05-06T06:52:33;14.00;87.60
59505;DHT22;45321;53.200;5.814;2023-05-06T06:55:00;14.10;88.00
59505;DHT22;45321;53.200;5.814;2023-05-06T06:57:26;14.20;87.60
59505;DHT22;45321;53.200;5.814;2023-05-06T06:59:52;14.30;87.30
59505;DHT22;45321;53.200;5.814;2023-05-06T07:02:21;14.40;87.10
59505;DHT22;45321;53.200;5.814;2023-05-06T07:04:47;14.50;87.10
59505;DHT22;45321;53.200;5.814;2023-05-06T07:07:13;14.60;86.40
59505;DHT22;45321;53.200;5.814;2023-05-06T07:09:39;14.70;86.30
59505;DHT22;45321;53.200;5.814;2023-05-06T07:12:06;14.80;86.10
59505;DHT22;45321;53.200;5.814;2023-05-06T07:14:32;14.90;85.90
59505;DHT22;45321;53.200;5.814;2023-05-06T07:16:58;15.00;84.90
59505;DHT22;45321;53.200;5.814;2023-05-06T07:19:28;15.20;84.10
59505;DHT22;45321;53.200;5.814;2023-05-06T07:21:56;15.20;84.40
59505;DHT22;45321;53.200;5.814;2023-05-06T07:24:22;15.30;83.00
59505;DHT22;45321;53.200;5.814;2023-05-06T07:26:48;15.30;83.20
59505;DHT22;45321;53.200;5.814;2023-05-06T07:29:14;15.30;83.20
59505;DHT22;45321;53.200;5.814;2023-05-06T07:31:39;15.30;82.00
59505;DHT22;45321;53.200;5.814;2023-05-06T07:34:05;15.40;82.20
59505;DHT22;45321;53.200;5.814;2023-05-06T07:36:32;15.50;82.00
59505;DHT22;45321;53.200;5.814;2023-05-06T07:39:07;15.60;82.30
59505;DHT22;45321;53.200;5.814;2023-05-06T07:41:33;15.70;82.30
59505;DHT22;45321;53.200;5.814;2023-05-06T07:43:59;15.80;82.10
59505;DHT22;45321;53.200;5.814;2023-05-06T07:46:25;15.90;81.50
59505;DHT22;45321;53.200;5.814;2023-05-06T07:48:50;16.00;81.70
59505;DHT22;45321;53.200;5.814;2023-05-06T07:51:16;16.20;81.60
59505;DHT22;45321;53.200;5.814;2023-05-06T07:53:44;16.20;80.10
59505;DHT22;45321;53.200;5.814;2023-05-06T07:56:09;16.30;80.40
59505;DHT22;45321;53.200;5.814;2023-05-06T07:58:35;16.40;78.80
59505;DHT22;45321;53.200;5.814;2023-05-06T08:01:01;16.50;79.60
59505;DHT22;45321;53.200;5.814;2023-05-06T08:03:29;16.50;78.40
59505;DHT22;45321;53.200;5.814;2023-05-06T08:05:55;16.60;79.20
59505;DHT22;45321;53.200;5.814;2023-05-06T08:08:21;16.70;78.90
59505;DHT22;45321;53.200;5.814;2023-05-06T08:10:47;16.80;77.00
59505;DHT22;45321;53.200;5.814;2023-05-06T08:13:13;16.80;77.40
59505;DHT22;45321;53.200;5.814;2023-05-06T08:15:39;16.90;77.10
59505;DHT22;45321;53.200;5.814;2023-05-06T08:18:05;16.90;75.60
59505;DHT22;45321;53.200;5.814;2023-05-06T08:20:31;17.00;76.10
59505;DHT22;45321;53.200;5.814;2023-05-06T08:22:57;17.10;76.00
59505;DHT22;45321;53.200;5.814;2023-05-06T08:25:25;17.20;75.80
59505;DHT22;45321;53.200;5.814;2023-05-06T08:27:50;17.20;75.10
59505;DHT22;45321;53.200;5.814;2023-05-06T08:30:16;17.30;75.20
59505;DHT22;45321;53.200;5.814;2023-05-06T08:32:42;17.30;73.20
59505;DHT22;45321;53.200;5.814;2023-05-06T08:35:08;17.40;73.90
59505;DHT22;45321;53.200;5.814;2023-05-06T08:37:34;17.40;75.10
59505;DHT22;45321;53.200;5.814;2023-05-06T08:40:00;17.50;73.40
59505;DHT22;45321;53.200;5.814;2023-05-06T08:42:27;17.50;73.90
59505;DHT22;45321;53.200;5.814;2023-05-06T08:44:54;17.60;74.10
59505;DHT22;45321;53.200;5.814;2023-05-06T08:47:20;17.70;73.70
59505;DHT22;45321;53.200;5.814;2023-05-06T08:49:47;17.70;72.80
59505;DHT22;45321;53.200;5.814;2023-05-06T08:52:13;17.80;72.50
59505;DHT22;45321;53.200;5.814;2023-05-06T08:54:40;17.80;71.90
59505;DHT22;45321;53.200;5.814;2023-05-06T08:57:10;17.80;72.10
59505;DHT22;45321;53.200;5.814;2023-05-06T08:59:36;17.80;71.80
59505;DHT22;45321;53.200;5.814;2023-05-06T09:02:05;18.00;71.40
59505;DHT22;45321;53.200;5.814;2023-05-06T09:04:31;18.10;72.10
59505;DHT22;45321;53.200;5.814;2023-05-06T09:06:57;18.10;71.10
59505;DHT22;45321;53.200;5.814;2023-05-06T09:09:24;18.10;70.90
59505;DHT22;45321;53.200;5.814;2023-05-06T09:11:50;18.20;70.20
59505;DHT22;45321;53.200;5.814;2023-05-06T09:14:20;18.20;71.30
59505;DHT22;45321;53.200;5.814;2023-05-06T09:16:47;18.20;72.20
59505;DHT22;45321;53.200;5.814;2023-05-06T09:19:19;18.40;71.20
59505;DHT22;45321;53.200;5.814;2023-05-06T09:21:47;18.50;71.40
59505;DHT22;45321;53.200;5.814;2023-05-06T09:24:14;18.60;71.10
59505;DHT22;45321;53.200;5.814;2023-05-06T09:26:42;18.60;68.70
59505;DHT22;45321;53.200;5.814;2023-05-06T09:29:09;18.60;69.60
59505;DHT22;45321;53.200;5.814;2023-05-06T09:31:43;18.70;69.50
59505;DHT22;45321;53.200;5.814;2023-05-06T09:34:09;18.70;69.70
59505;DHT22;45321;53.200;5.814;2023-05-06T09:36:35;18.80;70.60
59505;DHT22;45321;53.200;5.814;2023-05-06T09:39:02;18.90;70.30
59505;DHT22;45321;53.200;5.814;2023-05-06T09:41:28;19.00;70.50
59505;DHT22;45321;53.200;5.814;2023-05-06T09:43:55;19.00;71.60
59505;DHT22;45321;53.200;5.814;2023-05-06T09:46:22;19.20;71.10
59505;DHT22;45321;53.200;5.814;2023-05-06T09:48:52;19.20;70.40
59505;DHT22;45321;53.200;5.814;2023-05-06T09:51:19;19.30;70.00
59505;DHT22;45321;53.200;5.814;2023-05-06T09:53:45;19.40;69.40
59505;DHT22;45321;53.200;5.814;2023-05-06T09:56:14;19.50;70.30
59505;DHT22;45321;53.200;5.814;2023-05-06T09:58:40;19.60;68.90
59505;DHT22;45321;53.200;5.814;2023-05-06T10:01:07;19.70;69.00
59505;DHT22;45321;53.200;5.814;2023-05-06T10:03:34;19.60;69.50
59505;DHT22;45321;53.200;5.814;2023-05-06T10:06:01;19.50;69.30
59505;DHT22;45321;53.200;5.814;2023-05-06T10:08:28;19.50;69.90
59505;DHT22;45321;53.200;5.814;2023-05-06T10:10:54;19.40;68.90
59505;DHT22;45321;53.200;5.814;2023-05-06T10:13:21;19.30;69.20
59505;DHT22;45321;53.200;5.814;2023-05-06T10:15:48;19.30;69.20
59505;DHT22;45321;53.200;5.814;2023-05-06T10:18:16;19.30;69.90
59505;DHT22;45321;53.200;5.814;2023-05-06T10:20:43;19.30;70.60
59505;DHT22;45321;53.200;5.814;2023-05-06T10:26:05;19.70;69.00
59505;DHT22;45321;53.200;5.814;2023-05-06T10:28:39;19.70;68.90
59505;DHT22;45321;53.200;5.814;2023-05-06T10:31:10;19.90;67.30
59505;DHT22;45321;53.200;5.814;2023-05-06T10:33:37;20.20;67.20
59505;DHT22;45321;53.200;5.814;2023-05-06T10:38:43;20.70;68.70
59505;DHT22;45321;53.200;5.814;2023-05-06T10:41:11;20.70;66.00
59505;DHT22;45321;53.200;5.814;2023-05-06T10:43:42;21.00;67.70
59505;DHT22;45321;53.200;5.814;2023-05-06T10:46:15;21.10;64.60
59505;DHT22;45321;53.200;5.814;2023-05-06T10:51:35;21.20;64.90
59505;DHT22;45321;53.200;5.814;2023-05-06T10:54:10;21.10;64.30
59505;DHT22;45321;53.200;5.814;2023-05-06T10:59:21;20.80;63.40
59505;DHT22;45321;53.200;5.814;2023-05-06T11:04:31;21.30;61.90
59505;DHT22;45321;53.200;5.814;2023-05-06T11:10:02;21.40;60.30
59505;DHT22;45321;53.200;5.814;2023-05-06T11:12:49;21.40;61.10
59505;DHT22;45321;53.200;5.814;2023-05-06T11:15:26;21.60;60.90
59505;DHT22;45321;53.200;5.814;2023-05-06T11:17:53;21.50;60.80
59505;DHT22;45321;53.200;5.814;2023-05-06T11:20:22;21.30;60.60
59505;DHT22;45321;53.200;5.814;2023-05-06T11:22:48;21.10;60.40
59505;DHT22;45321;53.200;5.814;2023-05-06T11:25:37;20.90;58.90
59505;DHT22;45321;53.200;5.814;2023-05-06T11:28:11;20.80;59.30
59505;DHT22;45321;53.200;5.814;2023-05-06T11:30:42;20.60;59.20
59505;DHT22;45321;53.200;5.814;2023-05-06T11:33:15;20.40;60.60
59505;DHT22;45321;53.200;5.814;2023-05-06T11:35:42;20.40;61.50
59505;DHT22;45321;53.200;5.814;2023-05-06T11:38:08;20.40;62.40
59505;DHT22;45321;53.200;5.814;2023-05-06T11:40:34;20.60;62.70
59505;DHT22;45321;53.200;5.814;2023-05-06T11:43:10;20.70;62.00
59505;DHT22;45321;53.200;5.814;2023-05-06T11:45:40;20.90;61.50
59505;DHT22;45321;53.200;5.814;2023-05-06T11:48:06;21.10;61.00
59505;DHT22;45321;53.200;5.814;2023-05-06T11:50:32;21.30;61.60
59505;DHT22;45321;53.200;5.814;2023-05-06T11:52:57;21.60;62.00
59505;DHT22;45321;53.200;5.814;2023-05-06T11:55:23;21.80;61.00
59505;DHT22;45321;53.200;5.814;2023-05-06T11:57:52;21.80;58.50
59505;DHT22;45321;53.200;5.814;2023-05-06T12:00:19;21.90;56.90
59505;DHT22;45321;53.200;5.814;2023-05-06T12:02:45;22.10;57.80
59505;DHT22;45321;53.200;5.814;2023-05-06T12:05:10;22.40;57.20
59505;DHT22;45321;53.200;5.814;2023-05-06T12:07:41;22.70;54.30
59505;DHT22;45321;53.200;5.814;2023-05-06T12:10:07;23.00;58.80
59505;DHT22;45321;53.200;5.814;2023-05-06T12:12:33;23.30;58.50
59505;DHT22;45321;53.200;5.814;2023-05-06T12:14:59;23.70;60.70
59505;DHT22;45321;53.200;5.814;2023-05-06T12:17:25;24.00;61.10
59505;DHT22;45321;53.200;5.814;2023-05-06T12:19:51;24.20;59.10
59505;DHT22;45321;53.200;5.814;2023-05-06T12:22:19;24.20;57.20
59505;DHT22;45321;53.200;5.814;2023-05-06T12:24:46;24.30;57.70
59505;DHT22;45321;53.200;5.814;2023-05-06T12:27:13;24.50;56.70
59505;DHT22;45321;53.200;5.814;2023-05-06T12:29:39;24.70;57.80
59505;DHT22;45321;53.200;5.814;2023-05-06T12:32:09;24.70;57.20
59505;DHT22;45321;53.200;5.814;2023-05-06T12:34:39;24.90;55.50
59505;DHT22;45321;53.200;5.814;2023-05-06T12:37:08;24.90;54.60
59505;DHT22;45321;53.200;5.814;2023-05-06T12:39:35;25.00;55.70
59505;DHT22;45321;53.200;5.814;2023-05-06T12:42:02;24.90;54.40
59505;DHT22;45321;53.200;5.814;2023-05-06T12:44:38;24.70;54.70
59505;DHT22;45321;53.200;5.814;2023-05-06T12:49:54;24.70;55.50
59505;DHT22;45321;53.200;5.814;2023-05-06T12:52:25;24.80;55.50
59505;DHT22;45321;53.200;5.814;2023-05-06T12:54:55;24.80;55.60
59505;DHT22;45321;53.200;5.814;2023-05-06T12:57:21;24.80;53.80
59505;DHT22;45321;53.200;5.814;2023-05-06T12:59:47;24.80;54.50
59505;DHT22;45321;53.200;5.814;2023-05-06T13:02:14;24.90;56.40
59505;DHT22;45321;53.200;5.814;2023-05-06T13:04:40;25.10;54.80
59505;DHT22;45321;53.200;5.814;2023-05-06T13:07:06;25.20;54.70
59505;DHT22;45321;53.200;5.814;2023-05-06T13:09:32;25.20;53.10
59505;DHT22;45321;53.200;5.814;2023-05-06T13:11:58;25.20;54.10
59505;DHT22;45321;53.200;5.814;2023-05-06T13:14:24;25.00;53.10
59505;DHT22;45321;53.200;5.814;2023-05-06T13:16:50;24.70;53.50
59505;DHT22;45321;53.200;5.814;2023-05-06T13:19:15;24.40;52.70
59505;DHT22;45321;53.200;5.814;2023-05-06T13:21:41;24.00;53.30
59505;DHT22;45321;53.200;5.814;2023-05-06T13:24:07;23.70;54.10
59505;DHT22;45321;53.200;5.814;2023-05-06T13:26:34;23.30;55.40
59505;DHT22;45321;53.200;5.814;2023-05-06T13:29:01;23.20;56.20
59505;DHT22;45321;53.200;5.814;2023-05-06T13:31:27;22.90;56.60
59505;DHT22;45321;53.200;5.814;2023-05-06T13:33:54;22.70;57.10
59505;DHT22;45321;53.200;5.814;2023-05-06T13:36:21;22.60;56.90
59505;DHT22;45321;53.200;5.814;2023-05-06T13:38:46;22.40;57.50
59505;DHT22;45321;53.200;5.814;2023-05-06T13:41:14;22.20;58.00
59505;DHT22;45321;53.200;5.814;2023-05-06T13:43:40;22.10;58.00
59505;DHT22;45321;53.200;5.814;2023-05-06T13:46:07;22.00;58.70
59505;DHT22;45321;53.200;5.814;2023-05-06T13:48:33;21.90;58.40
59505;DHT22;45321;53.200;5.814;2023-05-06T13:50:59;21.80;58.90
59505;DHT22;45321;53.200;5.814;2023-05-06T13:53:24;21.70;58.80
59505;DHT22;45321;53.200;5.814;2023-05-06T13:55:50;21.70;59.90
59505;DHT22;45321;53.200;5.814;2023-05-06T13:58:16;21.70;60.60
59505;DHT22;45321;53.200;5.814;2023-05-06T14:00:42;21.70;60.40
59505;DHT22;45321;53.200;5.814;2023-05-06T14:03:08;21.70;61.00
59505;DHT22;45321;53.200;5.814;2023-05-06T14:05:34;21.80;61.50
59505;DHT22;45321;53.200;5.814;2023-05-06T14:07:59;21.90;61.30
59505;DHT22;45321;53.200;5.814;2023-05-06T14:10:25;22.00;60.80
59505;DHT22;45321;53.200;5.814;2023-05-06T14:12:51;22.20;60.70
59505;DHT22;45321;53.200;5.814;2023-05-06T14:15:17;22.20;60.00
59505;DHT22;45321;53.200;5.814;2023-05-06T14:17:42;22.20;60.00
59505;DHT22;45321;53.200;5.814;2023-05-06T14:20:09;22.20;60.00
59505;DHT22;45321;53.200;5.814;2023-05-06T14:22:40;22.10;60.70
59505;DHT22;45321;53.200;5.814;2023-05-06T14:25:06;22.00;60.60
59505;DHT22;45321;53.200;5.814;2023-05-06T14:27:32;22.20;60.80
59505;DHT22;45321;53.200;5.814;2023-05-06T14:29:58;22.50;59.50
59505;DHT22;45321;53.200;5.814;2023-05-06T14:32:23;23.10;57.90
59505;DHT22;45321;53.200;5.814;2023-05-06T14:34:49;23.60;56.80
59505;DHT22;45321;53.200;5.814;2023-05-06T14:37:15;24.10;54.70
59505;DHT22;45321;53.200;5.814;2023-05-06T14:39:41;24.50;54.00
59505;DHT22;45321;53.200;5.814;2023-05-06T14:42:08;25.00;52.10
59505;DHT22;45321;53.200;5.814;2023-05-06T14:44:33;25.40;51.70
59505;DHT22;45321;53.200;5.814;2023-05-06T14:46:59;25.90;51.30
59505;DHT22;45321;53.200;5.814;2023-05-06T14:49:25;26.50;49.90
59505;DHT22;45321;53.200;5.814;2023-05-06T14:51:50;26.90;47.80
59505;DHT22;45321;53.200;5.814;2023-05-06T14:54:16;27.20;47.70
59505;DHT22;45321;53.200;5.814;2023-05-06T14:56:42;27.50;47.00
59505;DHT22;45321;53.200;5.814;2023-05-06T14:59:11;27.60;46.80
59505;DHT22;45321;53.200;5.814;2023-05-06T15:01:37;27.50;46.60
59505;DHT22;45321;53.200;5.814;2023-05-06T15:04:03;27.20;46.00
59505;DHT22;45321;53.200;5.814;2023-05-06T15:06:29;26.80;47.70
59505;DHT22;45321;53.200;5.814;2023-05-06T15:08:54;26.70;46.90
59505;DHT22;45321;53.200;5.814;2023-05-06T15:11:21;26.80;45.90
59505;DHT22;45321;53.200;5.814;2023-05-06T15:13:47;26.50;46.80
59505;DHT22;45321;53.200;5.814;2023-05-06T15:16:12;25.90;47.80
59505;DHT22;45321;53.200;5.814;2023-05-06T15:18:38;25.40;49.20
59505;DHT22;45321;53.200;5.814;2023-05-06T15:21:06;25.00;48.90
59505;DHT22;45321;53.200;5.814;2023-05-06T15:23:31;24.70;50.00
59505;DHT22;45321;53.200;5.814;2023-05-06T15:25:57;24.30;51.10
59505;DHT22;45321;53.200;5.814;2023-05-06T15:28:26;24.00;50.50
59505;DHT22;45321;53.200;5.814;2023-05-06T15:30:52;23.70;50.60
59505;DHT22;45321;53.200;5.814;2023-05-06T15:33:18;23.60;51.10
59505;DHT22;45321;53.200;5.814;2023-05-06T15:35:44;23.40;51.50
59505;DHT22;45321;53.200;5.814;2023-05-06T15:38:10;23.20;51.50
59505;DHT22;45321;53.200;5.814;2023-05-06T15:40:37;23.00;52.60
59505;DHT22;45321;53.200;5.814;2023-05-06T15:43:06;22.80;53.00
59505;DHT22;45321;53.200;5.814;2023-05-06T15:45:33;22.70;53.20
59505;DHT22;45321;53.200;5.814;2023-05-06T15:47:59;22.50;53.60
59505;DHT22;45321;53.200;5.814;2023-05-06T15:50:25;22.30;54.40
59505;DHT22;45321;53.200;5.814;2023-05-06T15:52:51;22.20;55.00
59505;DHT22;45321;53.200;5.814;2023-05-06T15:55:16;22.20;54.70
59505;DHT22;45321;53.200;5.814;2023-05-06T15:57:42;22.00;55.30